Weather Top, Arizona (BMGR) Weather observations

Data are for 10 minute period ending at time listed.
 Day   Time   Solar   Ave.   Ave.  Ave.  Vector  Max.   Total    
  of    of     Rad.   Air    Rel.  Wind   Wind   Wind  Precip.   
Year   Day            Temp.  Hum.  Speed  Dir.   Gust            
2026   (MST)  Kw/m2    F      %     mph   deg.    mph    in.     
-----------------------------------------------------------------
 122   14:35   0.81   87.2    10    4.9   212     9.3    0.00 
 122   14:40   0.80   87.1    10    5.8   194     9.9    0.00 
 122   14:45   0.82   87.3    10    4.0   164     8.8    0.00 
 122   14:50   0.81   87.2    10    3.3   165     7.1    0.00 
 122   14:55   0.69   88.6    10    4.8   195     9.3    0.00 
 122   15:00   0.69   89.4    10    5.9   104    15.5    0.00 
 122   15:05   0.82   89.9     9    2.9    65     7.1    0.00 
 122   15:10   0.73   90.5     9    4.0    76     9.3    0.00 
 122   15:15   0.76   88.8    10    4.2   281     9.3    0.00 
 122   15:20   0.75   87.3    10    2.7    61     5.4    0.00 
 122   15:25   0.60   87.8    10    3.0    19     6.0    0.00 
 122   15:30   0.60   87.1    10    4.1   349     9.9    0.00 
 122   15:35   0.56   89.0    10    4.5   100     7.7    0.00 
 122   15:40   0.59   89.0    10    3.7   140     8.8    0.00 
 122   15:45   0.64   89.1    10    4.5    45     8.2    0.00 
 122   15:50   0.69   88.3    10    4.1   331    11.0    0.00 
 122   15:55   0.62   86.7    10    6.5   293    11.6    0.00 
 122   16:00   0.67   85.9    11    4.1   275     8.8    0.00 
 122   16:05   0.67   86.5    11    3.7   263     8.8    0.00 
 122   16:10   0.46   88.1    10    3.6    26     7.7    0.00 
 122   16:15   0.50   88.7    10    2.7    13     6.5    0.00 
 122   16:20   0.51   86.8    10    4.6     9     9.3    0.00 
 122   16:25   0.34   87.3    10    4.9     5    15.5    0.00 
 122   16:30   0.28   87.9    10    6.2   188    22.2    0.00 
 122   16:35   0.37   87.2    10    2.3   235     5.4    0.00 
 122   16:40   0.32   86.7    10    1.8   130     6.0    0.00 
 122   16:45   0.32   86.5    10    4.0   156     7.7    0.00 
 122   16:50   0.31   86.0    10    2.0   117     4.3    0.00 
 122   16:55   0.35   86.4    10    4.2   175     8.8    0.00 
 122   17:00   0.43   86.9    10    4.8    60    11.0    0.00 
 122   17:05   0.41   87.6    10    1.9    60     5.4    0.00 
 122   17:10   0.26   87.7    10    2.0    60     4.9    0.00 
 122   17:15   0.26   87.4    10    3.7     2     6.0    0.00 
 122   17:20   0.25   87.6    10    1.7   136     5.4    0.00 
 122   17:25   0.22   87.3    10    3.4    98     7.7    0.00 
 122   17:30   0.26   86.8    10    5.7   345    11.6    0.00 
 122   17:35   0.40   86.5    11    6.8   321    13.8    0.00 
 122   17:40   0.32   87.1    11    2.9   338     8.8    0.00 
 122   17:45   0.21   87.0    10    3.5   314     7.1    0.00 
 122   17:50   0.22   86.9    10    3.7   276     7.7    0.00 
 122   17:55   0.10   86.6    11    3.0    97     6.5    0.00 
 122   18:00   0.09   86.1    11    2.5   155     6.0    0.00 
 122   18:05   0.15   86.1    11    2.0    74     4.9    0.00 
 122   18:10   0.22   86.5    11    2.8    23     7.1    0.00 
 122   18:15   0.21   87.2    10    1.9    34     5.4    0.00 
 122   18:20   0.18   87.6    10    3.3   346     7.7    0.00 
 122   18:25   0.14   86.5    11    3.1   332     6.0    0.00 
 122   18:30   0.12   86.5    11    2.8    93     5.4    0.00 
 122   18:35   0.10   86.4    11    2.7    93     4.3    0.00 
 122   18:40   0.08   86.1    11    3.3    10     7.7    0.00 
 122   18:45   0.07   85.6    11    4.3   350     8.2    0.00 
 122   18:50   0.06   85.7    11    3.3   340     7.1    0.00 
 122   18:55   0.04   85.3    11    2.8    32     7.1    0.00 
 122   19:00   0.02   84.5    12    4.4   341     9.9    0.00 
 122   19:05   0.01   83.9    12    4.2   319     7.7    0.00 
 122   19:10   0.01   83.6    12    5.4   324     9.9    0.00 
 122   19:15   0.00   83.2    12    5.5   306     9.9    0.00 
 122   19:20   0.00   82.9    13    6.2   299    12.1    0.00 
 122   19:25   0.00   82.6    13    6.3   308    13.3    0.00 
 122   19:30   0.00   82.4    13    6.9   301    13.3    0.00 
 122   19:35   0.00   82.1    13    5.2   320    11.6    0.00 
 122   19:40   0.00   82.0    13    5.6   315    11.6    0.00 
 122   19:45   0.00   81.8    13    6.3   333    12.7    0.00 
 122   19:50   0.00   81.6    13    9.0   327    13.3    0.00 
 122   19:55   0.00   81.5    13    8.1   329    12.1    0.00 
 122   20:00   0.00   81.3    14    5.8   351    10.5    0.00 
 122   20:05   0.00   81.0    14    6.8   359    11.0    0.00 
 122   20:10   0.00   80.9    14    5.6   356     8.8    0.00 
 122   20:15   0.00   80.7    14    5.7   355    10.5    0.00 
 122   20:20   0.00   80.6    14    5.7     2    11.0    0.00 
 122   20:25   0.00   80.5    14    5.0   358     9.3    0.00 
 122   20:30   0.00   80.4    14    6.0     3     9.3    0.00 
 122   20:35   0.00   80.3    14    5.2    12     8.8    0.00 
 122   20:40   0.00   80.2    15    6.8    14    11.6    0.00 
 122   20:45   0.00   80.1    15    6.5    23    11.0    0.00 
 122   20:50   0.00   79.9    15    5.3    17     9.3    0.00 
 122   20:55   0.00   79.6    15    6.2    31     9.9    0.00 
 122   21:00   0.00   79.5    15    5.7    29     8.2    0.00 
 122   21:05   0.00   79.3    16    6.9    32    11.0    0.00 
 122   21:10   0.00   79.2    16    8.7    31    12.1    0.00 
 122   21:15   0.00   79.1    15    8.7    51    12.1    0.00 
 122   21:20   0.00   79.3    15    5.7    72     7.7    0.00 
 122   21:25   0.00   79.4    15    2.5   163     5.4    0.00 
 122   21:30   0.00   78.9    16    2.3    99     5.4    0.00 
 122   21:35   0.00   78.6    16    3.1   312     6.5    0.00 
 122   21:40   0.00   79.4    15    4.0   346     7.1    0.00 
 122   21:45   0.00   79.9    15    2.3    76     7.1    0.00 
 122   21:50   0.00   79.5    15    0.0     0     0.0    0.00 
 122   21:55   0.00   78.9    15    0.0     0     0.0    0.00 
 122   22:00   0.00   78.4    16    0.0     0     0.0    0.00 
 122   22:05   0.00   78.5    16    0.0     0     0.0    0.00 
 122   22:10   0.00   78.7    16    0.0     0     0.0    0.00 
 122   22:15   0.00   78.5    16    0.0     0     0.0    0.00 
 122   22:20   0.00   78.3    16    1.1   151     3.8    0.00 
 122   22:25   0.00   78.1    16    2.7   155     3.8    0.00 
 122   22:30   0.00   77.7    16    3.7   169     5.4    0.00 
 122   22:35   0.00   76.9    17    4.5   191     7.1    0.00 
 122   22:40   0.00   76.8    17    4.0   183     4.9    0.00 
 122   22:45   0.00   76.4    18    4.1   194     6.5    0.00 
 122   22:50   0.00   76.6    18    3.9   187     6.0    0.00 
 122   22:55   0.00   76.3    18    4.0   187     6.0    0.00 
 122   23:00   0.00   76.4    19    4.0   194     6.5    0.00 
 122   23:05   0.00   76.4    19    4.9   204     7.7    0.00 
 122   23:10   0.00   76.5    19    6.1   212     8.2    0.00 
 122   23:15   0.00   76.5    19    5.7   212     8.8    0.00 
 122   23:20   0.00   76.4    19    6.1   216     9.3    0.00 
 122   23:25   0.00   76.2    19    5.6   212     7.7    0.00 
 122   23:30   0.00   76.0    19    6.2   210     9.3    0.00 
 122   23:35   0.00   76.1    19    5.7   212     7.7    0.00 
 122   23:40   0.00   76.2    19    5.2   214     7.7    0.00 
 122   23:45   0.00   76.0    19    4.9   210     7.1    0.00 
 122   23:50   0.00   76.1    19    4.6   211     6.5    0.00 
 122   23:55   0.00   76.0    19    4.8   208     6.5    0.00 
 123    0:00   0.00   75.8    19    5.1   210     7.1    0.00 
 123    0:05   0.00   76.0    19    4.8   217     7.1    0.00 
 123    0:10   0.00   76.0    18    4.6   215     7.1    0.00 
 123    0:15   0.00   75.8    18    4.1   214     7.1    0.00 
 123    0:20   0.00   75.7    18    3.8   212     6.0    0.00 
 123    0:25   0.00   75.8    18    4.1   215     6.0    0.00 
 123    0:30   0.00   75.7    18    3.9   207     6.0    0.00 
 123    0:35   0.00   75.8    18    4.2   206     5.4    0.00 
 123    0:40   0.00   75.5    18    4.8   197     7.7    0.00 
 123    0:45   0.00   75.3    18    4.7   191     6.5    0.00 
 123    0:50   0.00   74.9    19    4.5   189     6.0    0.00 
 123    0:55   0.00   74.7    19    4.3   182     5.4    0.00 
 123    1:00   0.00   74.6    19    4.3   188     6.0    0.00 
 123    1:05   0.00   74.9    18    3.9   186     6.5    0.00 
 123    1:10   0.00   74.9    18    4.4   196     6.5    0.00 
 123    1:15   0.00   75.3    18    5.1   199     7.7    0.00 
 123    1:20   0.00   75.2    18    6.0   199     8.2    0.00 
 123    1:25   0.00   75.0    18    5.9   201     8.8    0.00 
 123    1:30   0.00   74.9    18    5.2   196     7.1    0.00 
 123    1:35   0.00   74.7    18    5.0   190     6.5    0.00 
 123    1:40   0.00   74.5    18    5.1   187     6.5    0.00 
 123    1:45   0.00   74.6    18    5.8   189     8.2    0.00 
 123    1:50   0.00   74.6    17    5.5   190     8.2    0.00 
 123    1:55   0.00   74.4    17    4.9   183     6.5    0.00 
 123    2:00   0.00   74.1    18    5.0   179     6.0    0.00 
 123    2:05   0.00   74.2    17    5.3   181     7.1    0.00 
 123    2:10   0.00   74.4    17    5.7   192     9.3    0.00 
 123    2:15   0.00   74.5    17    5.7   188     9.3    0.00 
 123    2:20   0.00   74.1    17    4.5   170     6.0    0.00 
 123    2:25   0.00   73.5    18    3.5   152     5.4    0.00 
 123    2:30   0.00   73.3    18    3.9   134     5.4    0.00 
 123    2:35   0.00   73.3    18    4.9   119     6.5    0.00 
 123    2:40   0.00   73.6    18    4.1   138     6.0    0.00 
 123    2:45   0.00   73.7    18    4.0   161     5.4    0.00 
 123    2:50   0.00   73.9    18    3.8   172     5.4    0.00 
 123    2:55   0.00   73.9    17    4.8   185     6.5    0.00 
 123    3:00   0.00   74.0    17    5.4   195     7.1    0.00 
 123    3:05   0.00   74.0    17    5.3   195     7.1    0.00 
 123    3:10   0.00   74.1    17    6.1   195     9.3    0.00 
 123    3:15   0.00   74.0    16    5.2   195     6.5    0.00 
 123    3:20   0.00   74.5    16    6.3   199     8.8    0.00 
 123    3:25   0.00   74.7    16    6.4   197    10.5    0.00 
 123    3:30   0.00   74.6    16    5.8   199     8.2    0.00 
 123    3:35   0.00   74.5    16    5.8   201     9.3    0.00 
 123    3:40   0.00   74.5    16    6.2   205     8.8    0.00 
 123    3:45   0.00   74.5    16    6.1   199     9.3    0.00 
 123    3:50   0.00   74.7    15    6.6   201     9.3    0.00 
 123    3:55   0.00   74.5    15    5.6   199     8.2    0.00 
 123    4:00   0.00   74.6    15    6.1   197     8.8    0.00 
 123    4:05   0.00   74.9    15    6.4   205     8.8    0.00 
 123    4:10   0.00   74.9    15    5.8   200     8.2    0.00 
 123    4:15   0.00   74.9    15    6.0   210     8.2    0.00 
 123    4:20   0.00   75.1    15    6.3   211     8.8    0.00 
 123    4:25   0.00   75.0    15    6.2   202     7.7    0.00 
 123    4:30   0.00   74.2    16    4.9   186     6.5    0.00 
 123    4:35   0.00   73.3    16    4.8   181     6.0    0.00 
 123    4:40   0.00   73.1    16    4.6   163     6.5    0.00 
 123    4:45   0.00   72.8    16    4.9   145     8.2    0.00 
 123    4:50   0.00   72.4    17    5.6   131     8.2    0.00 
 123    4:55   0.00   72.2    17    6.0   119     8.8    0.00 
 123    5:00   0.00   72.5    17    5.9   113     8.8    0.00 
 123    5:05   0.00   72.8    17    6.2   116     8.8    0.00 
 123    5:10   0.00   72.8    17    5.5   135     8.2    0.00 
 123    5:15   0.00   72.8    17    4.9   140     7.7    0.00 
 123    5:20   0.00   72.8    17    4.7   130     7.1    0.00 
 123    5:25   0.00   72.8    17    4.1   124     5.4    0.00 
 123    5:30   0.00   72.9    17    5.5   119     7.1    0.00 
 123    5:35   0.00   72.8    17    5.6   118     7.1    0.00 
 123    5:40   0.00   72.6    17    4.9   117     6.5    0.00 
 123    5:45   0.00   72.6    17    4.6   128     6.5    0.00 
 123    5:50   0.00   72.5    17    5.0   127     7.1    0.00 
 123    5:55   0.01   72.5    17    6.0   116     8.2    0.00 
 123    6:00   0.01   72.5    18    6.8   116     8.2    0.00 
 123    6:05   0.02   72.6    18    7.4   112     8.8    0.00 
 123    6:10   0.03   72.4    18    6.0    99     8.8    0.00 
 123    6:15   0.03   71.8    18    6.4   102     8.2    0.00 
 123    6:20   0.04   72.2    18    7.3   109     9.3    0.00 
 123    6:25   0.04   72.3    18    7.8   110     9.9    0.00 
 123    6:30   0.06   72.3    18    8.5   113    11.0    0.00 
 123    6:35   0.07   72.2    18    8.7   111    11.0    0.00 
 123    6:40   0.07   72.2    18    8.0   104    10.5    0.00 
 123    6:45   0.06   72.3    18    8.1   106    10.5    0.00 
 123    6:50   0.08   72.0    18    6.9    94     8.8    0.00 
 123    6:55   0.09   72.3    18    7.6   110    10.5    0.00 
 123    7:00   0.09   72.8    18    9.1   116    13.3    0.00 
 123    7:05   0.10   73.3    18    9.8   116    13.3    0.00 
 123    7:10   0.12   73.3    18    9.4   110    12.1    0.00 
 123    7:15   0.13   72.6    18    8.1   100    10.5    0.00 
 123    7:20   0.14   72.5    18    7.2   103     9.3    0.00 
 123    7:25   0.14   72.8    18    8.3   109     9.9    0.00 
 123    7:30   0.15   73.3    18    7.3   112    10.5    0.00 
 123    7:35   0.17   73.4    18    6.4   113     8.8    0.00 
 123    7:40   0.17   73.4    18    7.1   108    11.0    0.00 
 123    7:45   0.17   73.7    18    7.3   111     9.3    0.00 
 123    7:50   0.18   74.1    18    8.4   121    11.6    0.00 
 123    7:55   0.18   74.1    18    7.1   117    12.1    0.00 
 123    8:00   0.22   74.3    17    5.8   122     7.7    0.00 
 123    8:05   0.21   74.3    18    6.3   121     9.9    0.00 
 123    8:10   0.22   74.4    18    6.2   123     9.3    0.00 
 123    8:15   0.22   74.7    17    5.5   134     8.2    0.00 
 123    8:20   0.20   74.9    17    6.5   127    11.0    0.00 
 123    8:25   0.25   74.8    17    7.4   126     9.9    0.00 
 123    8:30   0.24   75.0    17    7.9   124    11.6    0.00 
 123    8:35   0.25   75.1    17    7.5   119    11.6    0.00 
 123    8:40   0.26   75.5    17    8.2   123    12.1    0.00 
 123    8:45   0.27   75.7    17    6.4   130    12.1    0.00 
 123    8:50   0.31   75.7    17    7.9   130    12.1    0.00 
 123    8:55   0.32   75.9    17    6.4   131    12.1    0.00 
 123    9:00   0.35   76.1    17    6.2   131    11.6    0.00 
 123    9:05   0.36   76.4    17    6.7   127    11.0    0.00 
 123    9:10   0.31   76.6    17    5.8   130     8.8    0.00 
 123    9:15   0.29   77.5    16    6.8   137    12.1    0.00 
 123    9:20   0.32   77.6    16    8.1   127    16.0    0.00 
 123    9:25   0.33   77.5    16    8.8   124    12.7    0.00 
 123    9:30   0.42   77.7    16    9.7   124    17.7    0.00 
 123    9:35   0.52   79.1    15    7.1   134    13.8    0.00 
 123    9:40   0.60   79.4    14    9.2   121    13.3    0.00 
 123    9:45   0.76   79.5    14    9.4   123    15.5    0.00 
 123    9:50   0.67   80.6    14    9.0   135    14.9    0.00 
 123    9:55   0.73   80.4    14    8.6   133    13.8    0.00 
 123   10:00   0.62   80.3    14    8.7   125    14.4    0.00 
 123   10:05   0.67   80.5    14    8.8   128    16.0    0.00 
 123   10:10   0.72   80.5    14   10.6   118    17.2    0.00 
 123   10:15   0.61   80.5    14    8.6   119    13.3    0.00 
 123   10:20   0.69   80.8    14    9.7   126    16.6    0.00 
 123   10:25   0.69   80.3    14   12.7   120    18.3    0.00 
 123   10:30   0.77   80.5    15   11.5   120    17.2    0.00 
 123   10:35   0.80   81.0    15    9.1   128    16.6    0.00 
 123   10:40   0.77   82.8    14    5.8   165    11.0    0.00 
 123   10:45   0.62   83.0    14    8.0   187    14.9    0.00 
 123   10:50   0.58   82.7    14    7.0   192    11.0    0.00 
 123   10:55   0.62   82.7    15    7.1   190    13.3    0.00 
 123   11:00   0.66   82.6    15   11.0   174    14.9    0.00 
 123   11:05   0.59   82.5    16   10.3   182    16.6    0.00 
 123   11:10   0.67   82.4    16    8.5   190    14.4    0.00 
 123   11:15   0.73   83.4    15    6.5   174    13.3    0.00 
 123   11:20   0.78   83.7    15    9.5   176    17.2    0.00 
 123   11:25   0.85   84.0    15   10.0   170    14.9    0.00 
 123   11:30   0.83   84.5    15   10.8   155    18.9    0.00 
 123   11:35   0.92   84.3    14   12.2   158    20.0    0.00 
 123   11:40   0.97   84.7    14   11.6   170    22.8    0.00 
 123   11:45   0.96   85.1    14   11.3   163    18.3    0.00 
 123   11:50   0.81   85.0    14   10.4   166    19.4    0.00 
 123   11:55   0.92   85.2    14    8.0   176    13.3    0.00 
 123   12:00   1.01   85.6    14    7.4   202    21.6    0.00 
 123   12:05   0.88   85.7    14   10.6   189    25.6    0.00 
 123   12:10   0.93   84.8    14   12.8   158    20.0    0.00 
 123   12:15   0.98   84.2    15    7.3   172    14.4    0.00 
 123   12:20   0.98   86.0    14   10.1   163    19.4    0.00 
 123   12:25   1.00   86.1    14   11.1   196    18.9    0.00 
 123   12:30   0.93   85.0    14   13.3   195    23.9    0.00 
 123   12:35   0.98   84.6    14   10.2   197    17.7    0.00 
 123   12:40   0.94   85.2    14   11.1   194    18.9    0.00 
 123   12:45   0.85   85.1    15    7.7   185    14.4    0.00 
 123   12:50   0.94   85.2    15   12.1   167    19.4    0.00 
 123   12:55   0.96   85.4    15    9.6   174    17.2    0.00 
 123   13:00   0.98   86.0    15   11.0   191    18.3    0.00 
 123   13:05   0.93   85.7    15   11.2   191    17.2    0.00 
 123   13:10   0.95   84.5    16   10.8   183    19.4    0.00 
 123   13:15   0.96   86.2    15    9.4   203    17.7    0.00 
 123   13:20   0.96   87.6    14    9.0   164    19.4    0.00 
 123   13:25   0.97   85.5    15   10.1   195    18.9    0.00 
 123   13:30   0.89   85.2    16   13.3   207    26.1    0.00 
 123   13:35   0.88   83.8    16   14.1   213    21.6    0.00 
 123   13:40   0.91   84.0    16    9.8   211    16.6    0.00 
 123   13:45   0.81   84.7    16    9.9   188    19.4    0.00 
 123   13:50   0.86   85.6    15    9.1   202    17.2    0.00 
 123   13:55   0.94   85.3    15    8.1   200    17.2    0.00 
 123   14:00   0.86   87.6    14    5.3   179    13.8    0.00 
 123   14:05   0.87   86.3    15   10.8   205    22.8    0.00 
 123   14:10   0.79   85.8    15    8.9   187    15.5    0.00 
 123   14:15   0.92   86.2    15   11.1   196    19.4    0.00 
 123   14:20   0.79   85.9    15   11.4   191    23.3    0.00 
 123   14:25   0.89   85.8    15   10.7   204    19.4    0.00 
 123   14:30   0.88   85.5    15   11.3   204    20.5    0.00 

Return to Weather Top graphs page.


Western Regional Climate Center,wrcc@dri.edu